createdAt,value
2018-09-21T00:00:11.558Z,5.23
2018-09-21T00:03:16.828Z,5.90
2018-09-21T00:06:21.693Z,5.17
2018-09-21T00:09:26.039Z,5.00
2018-09-21T00:12:30.910Z,5.03
2018-09-21T00:15:36.516Z,4.87
2018-09-21T00:18:40.883Z,5.03
2018-09-21T00:21:45.281Z,5.30
2018-09-21T00:24:49.908Z,4.97
2018-09-21T00:27:54.269Z,4.90
2018-09-21T00:30:58.591Z,5.70
2018-09-21T00:34:02.897Z,5.03
2018-09-21T00:37:07.283Z,5.60
2018-09-21T00:40:11.979Z,4.80
2018-09-21T00:43:16.901Z,5.07
2018-09-21T00:46:21.223Z,4.30
2018-09-21T00:49:25.572Z,5.03
2018-09-21T00:52:29.953Z,4.60
2018-09-21T00:55:35.756Z,4.60
2018-09-21T00:58:40.082Z,5.50
2018-09-21T01:01:44.585Z,4.60
2018-09-21T01:04:48.911Z,4.77
2018-09-21T01:07:53.314Z,4.50
2018-09-21T01:10:57.727Z,5.27
2018-09-21T01:14:02.043Z,4.47
2018-09-21T01:17:06.810Z,4.50
2018-09-21T01:20:11.143Z,4.47
2018-09-21T01:23:15.508Z,4.27
2018-09-21T01:26:20.112Z,4.23
2018-09-21T01:29:24.596Z,3.87
2018-09-21T01:32:29.024Z,4.40
2018-09-21T01:35:33.468Z,3.53
2018-09-21T01:38:37.877Z,4.40
2018-09-21T01:41:42.240Z,4.37
2018-09-21T01:44:46.580Z,4.47
2018-09-21T01:47:52.610Z,4.17
2018-09-21T01:50:56.991Z,4.03
2018-09-21T01:54:01.309Z,3.60
2018-09-21T01:57:05.641Z,4.27
2018-09-21T02:00:10.500Z,3.97
2018-09-21T02:03:14.822Z,3.80
2018-09-21T02:06:19.188Z,3.90
2018-09-21T02:09:23.545Z,3.83
2018-09-21T02:12:27.948Z,3.87
2018-09-21T02:15:33.131Z,4.33
2018-09-21T02:18:37.474Z,4.10
2018-09-21T02:21:41.820Z,4.27
2018-09-21T02:24:46.141Z,4.20
2018-09-21T02:27:50.549Z,3.37
2018-09-21T02:30:55.152Z,4.30
2018-09-21T02:33:59.503Z,3.73
2018-09-21T02:37:03.844Z,3.03
2018-09-21T02:40:08.847Z,3.40
2018-09-21T02:43:13.199Z,3.57
2018-09-21T02:46:17.495Z,3.83
2018-09-21T02:49:21.840Z,3.83
2018-09-21T02:52:26.160Z,3.77
2018-09-21T02:55:30.477Z,3.07
2018-09-21T02:58:34.786Z,3.60
2018-09-21T03:01:39.204Z,3.20
2018-09-21T03:04:48.887Z,4.47
2018-09-21T03:07:53.768Z,3.93
2018-09-21T03:10:58.512Z,4.00
2018-09-21T03:14:02.926Z,3.83
2018-09-21T03:17:07.376Z,3.90
2018-09-21T03:20:12.337Z,3.80
2018-09-21T03:23:16.656Z,3.77
2018-09-21T03:26:21.124Z,3.58
2018-09-21T03:29:25.537Z,3.10
2018-09-21T03:32:29.964Z,3.57
2018-09-21T03:35:34.412Z,3.53
2018-09-21T03:38:38.842Z,3.17
2018-09-21T03:41:44.017Z,3.33
2018-09-21T03:44:48.340Z,3.63
2018-09-21T03:47:53.272Z,3.40
2018-09-21T03:50:58.415Z,3.60
2018-09-21T03:54:02.831Z,3.73
2018-09-21T03:57:08.163Z,3.72
2018-09-21T04:00:12.506Z,4.03
2018-09-21T04:03:17.159Z,4.13
2018-09-21T04:06:22.041Z,3.90
2018-09-21T04:09:26.820Z,2.90
2018-09-21T04:12:31.416Z,3.58
2018-09-21T04:15:36.598Z,3.43
2018-09-21T04:22:19.246Z,3.70
2018-09-21T04:25:23.776Z,3.87
2018-09-21T04:28:29.362Z,3.13
2018-09-21T04:31:36.864Z,3.37
2018-09-21T04:34:41.226Z,3.17
2018-09-21T04:37:45.768Z,3.33
2018-09-21T04:40:51.391Z,4.68
2018-09-21T04:43:55.993Z,3.40
2018-09-21T04:47:00.336Z,3.83
2018-09-21T04:50:05.514Z,3.43
2018-09-21T04:53:09.829Z,3.30
2018-09-21T04:56:14.185Z,3.60
2018-09-21T04:59:18.512Z,4.03
2018-09-21T05:02:22.816Z,3.93
2018-09-21T05:05:27.160Z,3.93
2018-09-21T05:08:31.515Z,3.63
2018-09-21T05:11:35.844Z,3.50
2018-09-21T05:14:40.151Z,4.03
2018-09-21T05:17:44.497Z,3.20
2018-09-21T05:20:48.832Z,4.03
2018-09-21T05:23:53.169Z,4.00
2018-09-21T05:26:57.501Z,3.93
2018-09-21T05:30:01.816Z,3.40
2018-09-21T05:33:06.184Z,2.80
2018-09-21T05:36:10.508Z,3.07
2018-09-21T05:39:15.412Z,3.80
2018-09-21T05:42:19.804Z,3.00
2018-09-21T05:45:24.213Z,3.53
2018-09-21T05:48:29.000Z,2.83
2018-09-21T05:51:33.348Z,2.73
2018-09-21T05:54:37.701Z,2.90
2018-09-21T05:57:42.014Z,3.70
2018-09-21T06:00:46.356Z,3.63
2018-09-21T06:03:50.668Z,2.97
2018-09-21T06:06:55.010Z,3.40
2018-09-21T06:09:59.324Z,3.27
2018-09-21T06:13:03.646Z,3.43
2018-09-21T06:16:08.164Z,2.90
2018-09-21T06:19:12.687Z,2.80
2018-09-21T06:22:17.021Z,2.37
2018-09-21T06:25:21.581Z,3.13
2018-09-21T06:28:26.181Z,2.40
2018-09-21T06:31:30.536Z,2.72
2018-09-21T06:34:34.872Z,3.40
2018-09-21T06:37:39.180Z,3.37
2018-09-21T06:40:43.506Z,2.73
2018-09-21T06:43:48.491Z,2.87
2018-09-21T06:46:52.816Z,2.87
2018-09-21T06:49:57.204Z,2.73
2018-09-21T06:53:01.518Z,2.33
2018-09-21T06:56:05.857Z,3.07
2018-09-21T06:59:10.172Z,2.83
2018-09-21T07:02:14.529Z,2.98
2018-09-21T07:05:19.177Z,2.47
2018-09-21T07:08:23.493Z,2.40
2018-09-21T07:11:27.813Z,2.60
2018-09-21T07:14:32.114Z,2.43
2018-09-21T07:17:36.540Z,2.33
2018-09-21T07:20:40.884Z,2.83
2018-09-21T07:23:45.227Z,2.23
2018-09-21T07:26:49.588Z,2.25
2018-09-21T07:29:54.031Z,2.37
2018-09-21T07:32:58.332Z,2.37
2018-09-21T07:36:02.731Z,2.40
2018-09-21T07:39:08.245Z,2.10
2018-09-21T07:42:12.588Z,2.40
2018-09-21T07:45:16.889Z,2.13
2018-09-21T07:48:21.197Z,2.47
2018-09-21T07:51:25.513Z,2.00
2018-09-21T07:54:29.816Z,2.23
2018-09-21T07:57:34.128Z,2.50
2018-09-21T08:00:38.569Z,2.33
2018-09-21T08:03:42.941Z,2.17
2018-09-21T08:06:47.287Z,2.13
2018-09-21T08:09:51.677Z,2.10
2018-09-21T08:12:56.029Z,1.80
2018-09-21T08:16:00.408Z,2.10
2018-09-21T08:19:05.162Z,2.33
2018-09-21T08:22:09.480Z,1.70
2018-09-21T08:25:13.923Z,2.23
2018-09-21T08:28:18.236Z,2.20
2018-09-21T08:31:22.573Z,2.47
2018-09-21T08:34:26.876Z,1.97
2018-09-21T08:37:31.260Z,2.20
2018-09-21T08:40:35.576Z,1.80
2018-09-21T08:43:40.074Z,1.98
2018-09-21T08:46:44.532Z,2.10
2018-09-21T08:49:48.848Z,2.23
2018-09-21T08:52:53.146Z,2.30
2018-09-21T08:55:57.449Z,2.03
2018-09-21T08:59:01.821Z,2.03
2018-09-21T09:02:06.129Z,1.60
2018-09-21T09:05:10.434Z,1.80
2018-09-21T09:08:15.056Z,1.90
2018-09-21T09:11:19.638Z,2.03
2018-09-21T09:14:23.953Z,2.30
2018-09-21T09:17:28.256Z,2.53
2018-09-21T09:20:32.560Z,2.23
2018-09-21T09:23:36.849Z,2.30
2018-09-21T09:26:41.150Z,2.63
2018-09-21T09:29:45.484Z,2.13
2018-09-21T09:32:49.801Z,2.17
2018-09-21T09:35:54.154Z,2.53
2018-09-21T09:38:58.655Z,2.40
2018-09-21T09:42:03.032Z,2.37
2018-09-21T09:45:07.352Z,2.00
2018-09-21T09:48:11.754Z,2.13
2018-09-21T09:51:16.048Z,2.40
2018-09-21T09:54:20.336Z,2.33
2018-09-21T09:57:24.641Z,2.57
2018-09-21T10:00:34.261Z,2.43
2018-09-21T10:03:38.639Z,2.20
2018-09-21T10:06:42.848Z,2.37
2018-09-21T10:09:47.140Z,2.80
2018-09-21T10:12:51.427Z,2.50
2018-09-21T10:15:55.723Z,2.50
2018-09-21T10:19:00.082Z,2.40
2018-09-21T10:22:04.403Z,2.47
2018-09-21T10:25:08.788Z,2.27
2018-09-21T10:28:13.235Z,2.23
2018-09-21T10:31:17.572Z,2.33
2018-09-21T10:34:21.919Z,2.03
2018-09-21T10:37:26.322Z,2.37
2018-09-21T10:40:30.669Z,2.43
2018-09-21T10:43:35.625Z,2.37
2018-09-21T10:46:39.992Z,2.30
2018-09-21T10:49:44.475Z,3.40
2018-09-21T10:52:48.908Z,2.77
2018-09-21T10:55:53.400Z,3.10
2018-09-21T10:58:57.889Z,3.10
2018-09-21T11:02:02.280Z,2.83
2018-09-21T11:05:06.724Z,2.77
2018-09-21T11:08:11.068Z,2.40
2018-09-21T11:11:15.380Z,2.97
2018-09-21T11:14:19.748Z,3.10
2018-09-21T11:17:24.100Z,2.60
2018-09-21T11:20:28.478Z,2.70
2018-09-21T11:23:32.823Z,2.80
2018-09-21T11:26:37.228Z,2.90
2018-09-21T11:29:41.546Z,2.93
2018-09-21T11:32:45.868Z,2.90
2018-09-21T11:35:50.216Z,2.53
2018-09-21T11:38:54.887Z,3.37
2018-09-21T11:41:59.237Z,2.98
2018-09-21T11:45:03.561Z,2.80
2018-09-21T11:48:07.941Z,2.20
2018-09-21T11:51:12.286Z,2.75
2018-09-21T11:54:16.633Z,2.87
2018-09-21T11:57:20.996Z,3.00
2018-09-21T12:00:25.326Z,2.70
2018-09-21T12:03:29.645Z,2.90
2018-09-21T12:06:34.041Z,2.87
2018-09-21T12:09:38.392Z,2.60
2018-09-21T12:12:42.718Z,2.90
2018-09-21T12:15:47.038Z,3.30
2018-09-21T12:18:51.358Z,2.50
2018-09-21T12:21:55.695Z,2.67
2018-09-21T12:25:00.060Z,2.80
2018-09-21T12:28:04.388Z,2.47
2018-09-21T12:31:08.706Z,2.33
2018-09-21T12:34:13.014Z,2.53
2018-09-21T12:37:17.308Z,2.30
2018-09-21T12:40:21.650Z,2.33
2018-09-21T12:43:26.040Z,2.83
2018-09-21T12:46:30.628Z,2.40
2018-09-21T12:49:36.538Z,3.23
2018-09-21T12:52:41.024Z,3.17
2018-09-21T12:55:45.439Z,2.80
2018-09-21T12:58:49.958Z,2.80
2018-09-21T13:01:54.292Z,2.43
2018-09-21T13:04:58.748Z,2.30
2018-09-21T13:08:03.063Z,2.53
2018-09-21T13:11:07.513Z,3.20
2018-09-21T13:14:11.930Z,2.83
2018-09-21T13:17:16.333Z,2.60
2018-09-21T13:20:20.712Z,2.57
2018-09-21T13:23:25.018Z,2.70
2018-09-21T13:26:29.399Z,2.77
2018-09-21T13:29:33.701Z,3.00
2018-09-21T13:32:38.024Z,2.17
2018-09-21T13:35:42.352Z,2.10
2018-09-21T13:38:46.724Z,2.50
2018-09-21T13:41:51.068Z,2.27
2018-09-21T13:44:55.386Z,2.10
2018-09-21T13:47:59.748Z,1.93
2018-09-21T13:51:04.044Z,2.00
2018-09-21T13:54:08.412Z,1.90
2018-09-21T13:57:12.759Z,1.80
2018-09-21T14:00:17.169Z,3.40
2018-09-21T14:03:21.472Z,1.80
2018-09-21T14:06:25.854Z,1.83
2018-09-21T14:09:30.197Z,1.80
2018-09-21T14:12:34.492Z,1.70
2018-09-21T14:15:38.803Z,1.80
2018-09-21T14:18:43.110Z,1.70
2018-09-21T14:21:47.433Z,1.67
2018-09-21T14:24:51.777Z,2.03
2018-09-21T14:27:56.138Z,1.87
2018-09-21T14:31:00.514Z,1.70
2018-09-21T14:34:04.833Z,1.50
2018-09-21T14:37:09.246Z,1.77
2018-09-21T14:40:13.743Z,1.77
2018-09-21T14:43:18.115Z,1.70
2018-09-21T14:46:22.464Z,1.83
2018-09-21T14:49:26.865Z,2.00
2018-09-21T14:52:31.193Z,2.13
2018-09-21T14:55:35.493Z,2.27
2018-09-21T14:58:39.957Z,1.80
2018-09-21T15:01:44.302Z,2.10
2018-09-21T15:04:48.800Z,2.27
2018-09-21T15:07:53.477Z,2.20
2018-09-21T15:10:57.951Z,2.20
2018-09-21T15:14:03.065Z,2.47
2018-09-21T15:17:07.421Z,2.37
2018-09-21T15:20:12.409Z,2.50
2018-09-21T15:23:16.735Z,2.83
2018-09-21T15:26:21.105Z,2.87
2018-09-21T15:29:25.529Z,3.37
2018-09-21T15:32:29.950Z,2.90
2018-09-21T15:35:34.371Z,2.53
2018-09-21T15:38:38.813Z,2.60
2018-09-21T15:41:43.469Z,2.60
2018-09-21T15:44:47.996Z,2.53
2018-09-21T15:47:53.006Z,2.67
2018-09-21T15:50:57.561Z,2.33
2018-09-21T15:54:02.097Z,2.50
2018-09-21T15:57:06.569Z,2.90
2018-09-21T16:00:11.012Z,3.00
2018-09-21T16:03:15.363Z,2.80
2018-09-21T16:06:19.767Z,3.50
2018-09-21T16:09:24.242Z,3.80
2018-09-21T16:12:28.585Z,6.40
2018-09-21T16:15:32.913Z,8.93
2018-09-21T16:18:37.338Z,4.97
2018-09-21T16:21:41.729Z,3.03
2018-09-21T16:24:46.029Z,3.20
2018-09-21T16:27:50.377Z,3.30
2018-09-21T16:30:54.678Z,2.93
2018-09-21T16:33:59.027Z,2.33
2018-09-21T16:37:03.357Z,2.77
2018-09-21T16:40:07.855Z,2.80
2018-09-21T16:43:12.303Z,3.17
2018-09-21T16:46:16.597Z,3.20
2018-09-21T16:49:20.940Z,3.07
2018-09-21T16:52:25.337Z,3.10
2018-09-21T16:55:29.653Z,3.60
2018-09-21T16:58:33.964Z,3.50
2018-09-21T17:01:38.262Z,3.53
2018-09-21T17:04:42.578Z,3.00
2018-09-21T17:07:46.875Z,3.47
2018-09-21T17:10:51.165Z,3.07
2018-09-21T17:13:55.562Z,3.00
2018-09-21T17:16:59.940Z,3.53
2018-09-21T17:20:04.346Z,3.10
2018-09-21T17:23:08.618Z,3.23
2018-09-21T17:26:12.981Z,2.80
2018-09-21T17:29:17.318Z,3.80
2018-09-21T17:32:21.898Z,3.50
2018-09-21T17:35:26.208Z,3.20
2018-09-21T17:38:30.580Z,3.00
2018-09-21T17:41:34.938Z,3.50
2018-09-21T17:44:39.444Z,3.20
2018-09-21T17:47:43.817Z,3.03
2018-09-21T17:50:48.298Z,2.90
2018-09-21T17:53:52.718Z,3.13
2018-09-21T17:56:57.090Z,3.77
2018-09-21T18:00:01.410Z,3.30
2018-09-21T18:03:05.762Z,3.70
2018-09-21T18:06:10.119Z,3.35
2018-09-21T18:09:14.447Z,3.23
2018-09-21T18:12:18.916Z,3.20
2018-09-21T18:15:23.342Z,3.60
2018-09-21T18:18:27.688Z,2.70
2018-09-21T18:21:32.015Z,3.07
2018-09-21T18:24:36.409Z,3.03
2018-09-21T18:27:40.810Z,2.90
2018-09-21T18:30:45.163Z,3.23
2018-09-21T18:33:49.489Z,3.57
2018-09-21T18:36:53.975Z,3.23
2018-09-21T18:40:07.825Z,2.90
2018-09-21T18:43:13.970Z,2.57
2018-09-21T18:46:18.286Z,2.77
2018-09-21T18:49:22.581Z,3.13
2018-09-21T18:52:26.938Z,2.93
2018-09-21T18:55:31.625Z,3.13
2018-09-21T18:58:36.043Z,2.70
2018-09-21T19:01:40.341Z,2.90
2018-09-21T19:04:44.735Z,2.73
2018-09-21T19:07:49.055Z,2.63
2018-09-21T19:10:53.461Z,2.77
2018-09-21T19:13:57.788Z,2.23
2018-09-21T19:17:02.253Z,2.13
2018-09-21T19:20:08.942Z,2.60
2018-09-21T19:23:13.245Z,3.20
2018-09-21T19:26:17.611Z,2.70
2018-09-21T19:29:22.036Z,2.40
2018-09-21T19:32:26.450Z,2.65
2018-09-21T19:35:30.768Z,1.90
2018-09-21T19:38:35.119Z,2.20
2018-09-21T19:41:39.446Z,1.00
2018-09-21T19:44:43.808Z,0.77
2018-09-21T19:47:48.115Z,0.60
2018-09-21T19:50:54.457Z,0.57
2018-09-21T19:53:58.811Z,0.50
2018-09-21T19:57:03.629Z,0.53
2018-09-21T20:00:09.764Z,0.50
2018-09-21T20:03:14.282Z,0.30
2018-09-21T20:06:18.742Z,0.40
2018-09-21T20:09:23.187Z,0.60
2018-09-21T20:12:27.597Z,0.30
2018-09-21T20:15:32.028Z,0.37
2018-09-21T20:18:36.448Z,0.60
2018-09-21T20:21:40.997Z,0.60
2018-09-21T20:24:45.364Z,0.40
2018-09-21T20:27:49.773Z,0.60
2018-09-21T20:30:59.510Z,0.60
2018-09-21T20:34:03.810Z,0.47
2018-09-21T20:37:08.255Z,0.50
2018-09-21T20:40:12.695Z,0.70
2018-09-21T20:43:17.198Z,0.40
2018-09-21T20:46:21.894Z,0.47
2018-09-21T20:49:26.228Z,0.70
2018-09-21T20:52:30.604Z,0.47
2018-09-21T20:55:35.611Z,0.60
2018-09-21T20:58:40.148Z,0.37
2018-09-21T21:01:44.562Z,0.70
2018-09-21T21:04:49.253Z,0.70
2018-09-21T21:07:53.854Z,0.80
2018-09-21T21:10:59.372Z,1.10
2018-09-21T21:14:03.800Z,0.90
2018-09-21T21:17:08.221Z,0.80
2018-09-21T21:20:12.627Z,0.80
2018-09-21T21:23:16.991Z,0.90
2018-09-21T21:26:21.520Z,0.77
2018-09-21T21:29:26.147Z,0.60
2018-09-21T21:32:30.650Z,0.87
2018-09-21T21:35:35.380Z,0.90
2018-09-21T21:38:40.068Z,0.80
2018-09-21T21:41:44.499Z,0.83
2018-09-21T21:44:49.080Z,1.10
2018-09-21T21:47:53.450Z,0.80
2018-09-21T21:50:57.967Z,0.90
2018-09-21T21:54:02.421Z,0.87
2018-09-21T21:57:07.266Z,0.90
2018-09-21T22:00:11.931Z,0.73
2018-09-21T22:03:16.253Z,1.00
2018-09-21T22:06:20.572Z,0.97
2018-09-21T22:09:24.883Z,1.10
2018-09-21T22:12:34.581Z,0.87
2018-09-21T22:15:38.986Z,0.93
2018-09-21T22:18:43.331Z,0.90
2018-09-21T22:25:25.403Z,1.37
2018-09-21T22:28:29.729Z,1.03
2018-09-21T22:31:34.285Z,1.63
2018-09-21T22:34:38.602Z,1.03
2018-09-21T22:37:43.054Z,1.20
2018-09-21T22:40:47.371Z,1.20
2018-09-21T22:43:51.808Z,1.20
2018-09-21T22:46:56.311Z,1.13
2018-09-21T22:50:00.653Z,1.20
2018-09-21T22:53:05.052Z,1.20
2018-09-21T22:56:10.781Z,0.97
2018-09-21T22:59:15.206Z,1.07
2018-09-21T23:02:19.560Z,1.17
2018-09-21T23:05:23.845Z,1.00
2018-09-21T23:08:29.145Z,1.00
2018-09-21T23:11:33.662Z,0.80
2018-09-21T23:14:37.989Z,1.17
2018-09-21T23:17:42.411Z,0.93
2018-09-21T23:20:46.877Z,0.90
2018-09-21T23:23:58.133Z,0.77
2018-09-21T23:27:02.458Z,0.60
2018-09-21T23:30:06.774Z,0.70
2018-09-21T23:33:11.473Z,0.67
2018-09-21T23:36:15.779Z,0.77
2018-09-21T23:39:20.232Z,0.83
2018-09-21T23:42:24.642Z,0.70
2018-09-21T23:45:29.013Z,0.93
2018-09-21T23:48:33.566Z,0.97
2018-09-21T23:51:37.917Z,1.10
2018-09-21T23:54:42.292Z,0.87
2018-09-21T23:57:46.709Z,0.90
